Terminal Aerodrome Forecast
Issued by NWS Wakefield, VA

Home | Current Version | Previous Version | Text Only | Print | Product List | Glossary On
Versions: 1 2 3 4 5 6 7 8 9 10 11 12 13 14 15 16 17 18 19
000
FTUS41 KAKQ 021733
TAFECG
TAF
KECG 021733Z 0218/0318 23010KT P6SM SCT030 BKN150
     FM030600 20012KT 6SM -SHRA SCT025 BKN120
     FM031100 22012KT 5SM -SHRA BKN025=

USA.gov is the U.S. government's official web portal to all federal, state and local government web resources and services.